Map

Track Data

SID SEASON NUMBER BASIN SUBBASIN NAME ISO_TIME NATURE LAT LON WMO_WIND WMO_PRES WMO_AGENCY TRACK_TYPE DIST2LAND LANDFALL IFLAG USA_AGENCY USA_ATCF_ID USA_LAT USA_LON USA_RECORD USA_STATUS USA_WIND USA_PRES USA_SSHS USA_R34_NE USA_R34_SE USA_R34_SW USA_R34_NW USA_R50_NE USA_R50_SE USA_R50_SW USA_R50_NW USA_R64_NE USA_R64_SE USA_R64_SW USA_R64_NW USA_POCI USA_ROCI USA_RMW USA_EYE TOKYO_LAT TOKYO_LON TOKYO_GRADE TOKYO_WIND TOKYO_PRES TOKYO_R50_DIR TOKYO_R50_LONG TOKYO_R50_SHORT TOKYO_R30_DIR TOKYO_R30_LONG TOKYO_R30_SHORT TOKYO_LAND CMA_LAT CMA_LON CMA_CAT CMA_WIND CMA_PRES HKO_LAT HKO_LON HKO_CAT HKO_WIND HKO_PRES NEWDELHI_LAT NEWDELHI_LON NEWDELHI_GRADE NEWDELHI_WIND NEWDELHI_PRES NEWDELHI_CI NEWDELHI_DP NEWDELHI_POCI REUNION_LAT REUNION_LON REUNION_TYPE REUNION_WIND REUNION_PRES REUNION_TNUM REUNION_CI REUNION_RMW REUNION_R34_NE REUNION_R34_SE REUNION_R34_SW REUNION_R34_NW REUNION_R50_NE REUNION_R50_SE REUNION_R50_SW REUNION_R50_NW REUNION_R64_NE REUNION_R64_SE REUNION_R64_SW REUNION_R64_NW BOM_LAT BOM_LON BOM_TYPE BOM_WIND BOM_PRES BOM_TNUM BOM_CI BOM_RMW BOM_R34_NE BOM_R34_SE BOM_R34_SW BOM_R34_NW BOM_R50_NE BOM_R50_SE BOM_R50_SW BOM_R50_NW BOM_R64_NE BOM_R64_SE BOM_R64_SW BOM_R64_NW BOM_ROCI BOM_POCI BOM_EYE BOM_POS_METHOD BOM_PRES_METHOD NADI_LAT NADI_LON NADI_CAT NADI_WIND NADI_PRES WELLINGTON_LAT WELLINGTON_LON WELLINGTON_WIND WELLINGTON_PRES DS824_LAT DS824_LON DS824_STAGE DS824_WIND DS824_PRES TD9636_LAT TD9636_LON TD9636_STAGE TD9636_WIND TD9636_PRES TD9635_LAT TD9635_LON TD9635_WIND TD9635_PRES TD9635_ROCI NEUMANN_LAT NEUMANN_LON NEUMANN_CLASS NEUMANN_WIND NEUMANN_PRES MLC_LAT MLC_LON MLC_CLASS MLC_WIND MLC_PRES USA_GUST BOM_GUST BOM_GUST_PER REUNION_GUST REUNION_GUST_PER USA_SEAHGT USA_SEARAD_NE USA_SEARAD_SE USA_SEARAD_SW USA_SEARAD_NW STORM_SPEED STORM_DIR
1928324N10145 1928 66 WP MM NOT_NAMED 1928-11-19 10:00:00 NR 10.0000 145.000 main 1367 1367 __________O___ -1 10.0000 145.000 7 5 286
1928324N10145 1928 66 WP MM NOT_NAMED 1928-11-19 12:00:00 NR 10.0490 144.831 main 1370 1381 __________P___ -1 10.0490 144.831 7 5 286
1928324N10145 1928 66 WP MM NOT_NAMED 1928-11-19 15:00:00 NR 10.1228 144.572 main 1384 1384 __________P___ -1 10.1228 144.572 7 5 286
1928324N10145 1928 66 WP MM NOT_NAMED 1928-11-19 18:00:00 NR 10.1976 144.299 main 1401 1401 __________P___ -1 10.1976 144.299 7 6 285
1928324N10145 1928 66 WP MM NOT_NAMED 1928-11-19 21:00:00 NR 10.2740 144.004 main 1418 1418 __________P___ -1 10.2740 144.004 7 6 285
1928324N10145 1928 66 WP MM NOT_NAMED 1928-11-19 22:00:00 NR 10.3000 143.900 main 1421 1421 __________O___ -1 10.3000 143.900 7 7 284
1928324N10145 1928 66 WP MM NOT_NAMED 1928-11-20 00:00:00 NR 10.3526 143.681 main 1437 1437 __________P___ -1 10.3526 143.681 7 7 283
1928324N10145 1928 66 WP MM NOT_NAMED 1928-11-20 03:00:00 NR 10.4315 143.327 main 1447 1447 __________P___ -1 10.4315 143.327 7 7 282
1928324N10145 1928 66 WP MM NOT_NAMED 1928-11-20 06:00:00 NR 10.5077 142.945 main 1452 1444 __________P___ -1 10.5077 142.945 7 8 281
1928324N10145 1928 66 WP MM NOT_NAMED 1928-11-20 09:00:00 NR 10.5783 142.540 main 1447 1443 __________P___ -1 10.5783 142.540 7 8 280
1928324N10145 1928 66 WP MM NOT_NAMED 1928-11-20 10:00:00 NR 10.6000 142.400 main 1443 1433 __________O___ -1 10.6000 142.400 7 8 277
1928324N10145 1928 66 WP MM NOT_NAMED 1928-11-20 12:00:00 NR 10.6311 142.125 main 1433 1427 __________P___ -1 10.6311 142.125 7 8 276
1928324N10145 1928 66 WP MM NOT_NAMED 1928-11-20 15:00:00 NR 10.6712 141.693 main 1431 1415 __________P___ -1 10.6712 141.693 7 9 276
1928324N10145 1928 66 WP MM NOT_NAMED 1928-11-20 18:00:00 NR 10.7148 141.240 main 1415 1406 __________P___ -1 10.7148 141.240 7 9 276
1928324N10145 1928 66 WP MM NOT_NAMED 1928-11-20 21:00:00 NR 10.7744 140.764 main 1408 1399 __________P___ -1 10.7744 140.764 7 10 278
1928324N10145 1928 66 WP MM NOT_NAMED 1928-11-20 22:00:00 NR 10.8000 140.600 main 1399 1391 __________O___ -1 10.8000 140.600 7 10 282
1928324N10145 1928 66 WP MM NOT_NAMED 1928-11-21 00:00:00 NR 10.8738 140.280 main 1398 1387 __________P___ -1 10.8738 140.280 7 10 284
1928324N10145 1928 66 WP MM NOT_NAMED 1928-11-21 03:00:00 NR 11.0038 139.782 main 1390 1383 __________P___ -1 11.0038 139.782 7 10 285
1928324N10145 1928 66 WP MM NOT_NAMED 1928-11-21 06:00:00 NR 11.1402 139.256 main 1384 1379 __________P___ -1 11.1402 139.256 7 11 284
1928324N10145 1928 66 WP MM NOT_NAMED 1928-11-21 09:00:00 NR 11.2645 138.695 main 1387 1365 __________P___ -1 11.2645 138.695 7 11 282
1928324N10145 1928 66 WP MM NOT_NAMED 1928-11-21 10:00:00 NR 11.3000 138.500 main 1365 1322 __________O___ -1 11.3000 138.500 7 12 278
1928324N10145 1928 66 WP MM NOT_NAMED 1928-11-21 12:00:00 NR 11.3503 138.100 main 1325 1260 __________P___ -1 11.3503 138.100 7 12 276
1928324N10145 1928 66 WP MM NOT_NAMED 1928-11-21 15:00:00 NR 11.4069 137.469 main 1260 1186 __________P___ -1 11.4069 137.469 7 13 274
1928324N10145 1928 66 WP MM NOT_NAMED 1928-11-21 18:00:00 NR 11.4493 136.809 main 1186 1113 __________P___ -1 11.4493 136.809 7 13 273
1928324N10145 1928 66 WP MM NOT_NAMED 1928-11-21 21:00:00 NR 11.4869 136.129 main 1113 1092 __________P___ -1 11.4869 136.129 7 13 273
1928324N10145 1928 66 WP MM NOT_NAMED 1928-11-21 22:00:00 NR 11.5000 135.900 main 1092 1039 __________O___ -1 11.5000 135.900 7 13 274
1928324N10145 1928 66 WP MM NOT_NAMED 1928-11-22 00:00:00 NR 11.5356 135.450 main 1039 978 __________P___ -1 11.5356 135.450 7 13 275
1928324N10145 1928 66 WP MM NOT_NAMED 1928-11-22 03:00:00 NR 11.5893 134.762 main 978 905 __________P___ -1 11.5893 134.762 7 14 274
1928324N10145 1928 66 WP MM NOT_NAMED 1928-11-22 06:00:00 NR 11.6406 134.060 main 905 821 __________P___ -1 11.6406 134.060 7 14 274
1928324N10145 1928 66 WP MM NOT_NAMED 1928-11-22 09:00:00 NR 11.6865 133.342 main 821 800 __________P___ -1 11.6865 133.342 7 14 274
1928324N10145 1928 66 WP MM NOT_NAMED 1928-11-22 10:00:00 NR 11.7000 133.100 main 800 745 __________O___ -1 11.7000 133.100 7 15 272
1928324N10145 1928 66 WP MM NOT_NAMED 1928-11-22 12:00:00 NR 11.7170 132.603 main 745 659 __________P___ -1 11.7170 132.603 7 15 272
1928324N10145 1928 66 WP MM NOT_NAMED 1928-11-22 15:00:00 NR 11.7362 131.846 main 659 585 __________P___ -1 11.7362 131.846 7 15 272
1928324N10145 1928 66 WP MM NOT_NAMED 1928-11-22 18:00:00 NR 11.7561 131.087 main 585 498 __________P___ -1 11.7561 131.087 7 15 272
1928324N10145 1928 66 WP MM NOT_NAMED 1928-11-22 21:00:00 NR 11.7861 130.342 main 498 477 __________P___ -1 11.7861 130.342 7 15 273
1928324N10145 1928 66 WP MM NOT_NAMED 1928-11-22 22:00:00 NR 11.8000 130.100 main 477 424 __________O___ -1 11.8000 130.100 7 14 275
1928324N10145 1928 66 WP MM NOT_NAMED 1928-11-23 00:00:00 NR 11.8433 129.633 main 424 363 __________P___ -1 11.8433 129.633 7 14 276
1928324N10145 1928 66 WP MM NOT_NAMED 1928-11-23 03:00:00 NR 11.9213 128.951 main 363 294 __________P___ -1 11.9213 128.951 7 13 277
1928324N10145 1928 66 WP MM NOT_NAMED 1928-11-23 06:00:00 NR 12.0041 128.284 main 294 228 __________P___ -1 12.0041 128.284 7 13 277
1928324N10145 1928 66 WP MM NOT_NAMED 1928-11-23 09:00:00 NR 12.0790 127.621 main 228 206 __________P___ -1 12.0790 127.621 7 13 276
1928324N10145 1928 66 WP MM NOT_NAMED 1928-11-23 10:00:00 NR 12.1000 127.400 main 206 152 __________O___ -1 12.1000 127.400 3 14 274
1928324N10145 1928 66 WP MM NOT_NAMED 1928-11-23 12:00:00 NR 12.1256 126.916 main 152 76 __________P___ -1 12.1256 126.916 3 14 272
1928324N10145 1928 66 WP MM NOT_NAMED 1928-11-23 15:00:00 NR 12.1515 126.189 main 76 0 __________P___ -1 12.1515 126.189 3 14 272
1928324N10145 1928 66 WP MM NOT_NAMED 1928-11-23 18:00:00 NR 12.1701 125.497 main 0 0 __________P___ -1 12.1701 125.497 3 13 272
1928324N10145 1928 66 WP MM NOT_NAMED 1928-11-23 21:00:00 NR 12.1909 124.881 main 0 0 __________P___ -1 12.1909 124.881 3 12 272
1928324N10145 1928 66 WP MM NOT_NAMED 1928-11-23 22:00:00 NR 12.2000 124.700 main 0 0 __________O___ -1 12.2000 124.700 4 10 274
1928324N10145 1928 66 WP MM NOT_NAMED 1928-11-24 00:00:00 NR 12.2269 124.395 main 0 0 __________P___ -1 12.2269 124.395 4 8 276
1928324N10145 1928 66 WP MM NOT_NAMED 1928-11-24 03:00:00 NR 12.2741 124.020 main 22 10 __________P___ -1 12.2741 124.020 4 7 278
1928324N10145 1928 66 WP MM NOT_NAMED 1928-11-24 06:00:00 NR 12.3269 123.704 main 10 0 __________P___ -1 12.3269 123.704 4 6 280
1928324N10145 1928 66 WP MM NOT_NAMED 1928-11-24 09:00:00 NR 12.3818 123.404 main 0 0 __________P___ -1 12.3818 123.404 4 6 281
1928324N10145 1928 66 WP MM NOT_NAMED 1928-11-24 10:00:00 NR 12.4000 123.300 main 0 0 __________O___ -1 12.4000 123.300 4 7 276
1928324N10145 1928 66 WP MM NOT_NAMED 1928-11-24 12:00:00 NR 12.4148 123.066 main 21 31 __________P___ -1 12.4148 123.066 4 7 274
1928324N10145 1928 66 WP MM NOT_NAMED 1928-11-24 15:00:00 NR 12.4366 122.709 main 58 58 __________P___ -1 12.4366 122.709 4 7 275
1928324N10145 1928 66 WP MM NOT_NAMED 1928-11-24 18:00:00 NR 12.4776 122.336 main 76 32 __________P___ -1 12.4776 122.336 4 8 279
1928324N10145 1928 66 WP MM NOT_NAMED 1928-11-24 21:00:00 NR 12.5597 121.939 main 32 21 __________P___ -1 12.5597 121.939 4 8 283
1928324N10145 1928 66 WP MM NOT_NAMED 1928-11-24 22:00:00 NR 12.6000 121.800 main 21 0 __________O___ -1 12.6000 121.800 4 9 288
1928324N10145 1928 66 WP MM NOT_NAMED 1928-11-25 00:00:00 NR 12.6996 121.501 main 0 0 __________P___ -1 12.6996 121.501 4 10 291
1928324N10145 1928 66 WP MM NOT_NAMED 1928-11-25 03:00:00 NR 12.8929 121.027 main 0 0 __________P___ -1 12.8929 121.027 4 10 295
1928324N10145 1928 66 WP MM NOT_NAMED 1928-11-25 06:00:00 NR 13.1305 120.539 main 11 0 __________P___ -1 13.1305 120.539 4 11 298
1928324N10145 1928 66 WP MM NOT_NAMED 1928-11-25 09:00:00 NR 13.4030 120.056 main 21 32 __________P___ -1 13.4030 120.056 4 11 301
1928324N10145 1928 66 WP MM NOT_NAMED 1928-11-25 10:00:00 NR 13.5000 119.900 main 44 44 __________O___ -1 13.5000 119.900 4 11 304
1928324N10145 1928 66 WP MM NOT_NAMED 1928-11-25 12:00:00 NR 13.7096 119.582 main 82 82 __________P___ -1 13.7096 119.582 4 11 306
1928324N10145 1928 66 WP MM NOT_NAMED 1928-11-25 15:00:00 NR 14.0496 119.117 main 140 133 __________P___ -1 14.0496 119.117 4 11 308
1928324N10145 1928 66 WP MM NOT_NAMED 1928-11-25 18:00:00 NR 14.3925 118.685 main 157 157 __________P___ -1 14.3925 118.685 4 10 310
1928324N10145 1928 66 WP MM NOT_NAMED 1928-11-25 21:00:00 NR 14.7069 118.309 main 188 184 __________P___ -1 14.7069 118.309 4 9 311
1928324N10145 1928 66 WP MM NOT_NAMED 1928-11-25 22:00:00 NR 14.8000 118.200 main 194 194 __________O___ -1 14.8000 118.200 4 7 310
1928324N10145 1928 66 WP MM NOT_NAMED 1928-11-26 00:00:00 NR 14.9453 118.015 main 211 208 __________P___ -1 14.9453 118.015 4 6 310
1928324N10145 1928 66 WP MM NOT_NAMED 1928-11-26 03:00:00 NR 15.1256 117.794 main 227 222 __________P___ -1 15.1256 117.794 4 5 311
1928324N10145 1928 66 WP MM NOT_NAMED 1928-11-26 06:00:00 NR 15.2830 117.617 main 238 238 __________P___ -1 15.2830 117.617 4 5 314
1928324N10145 1928 66 WP MM NOT_NAMED 1928-11-26 09:00:00 NR 15.4422 117.455 main 244 252 __________P___ -1 15.4422 117.455 4 5 316
1928324N10145 1928 66 WP MM NOT_NAMED 1928-11-26 10:00:00 NR 15.5000 117.400 main 252 252 __________O___ -1 15.5000 117.400 4 6 318
1928324N10145 1928 66 WP MM NOT_NAMED 1928-11-26 12:00:00 NR 15.6596 117.249 main 269 268 __________P___ -1 15.6596 117.249 4 7 319
1928324N10145 1928 66 WP MM NOT_NAMED 1928-11-26 15:00:00 NR 15.9121 117.021 main 288 288 __________P___ -1 15.9121 117.021 4 7 320
1928324N10145 1928 66 WP MM NOT_NAMED 1928-11-26 18:00:00 NR 16.1525 116.812 main 310 310 __________P___ -1 16.1525 116.812 4 6 320
1928324N10145 1928 66 WP MM NOT_NAMED 1928-11-26 21:00:00 NR 16.3494 116.643 main 332 334 __________P___ -1 16.3494 116.643 4 5 321
1928324N10145 1928 66 WP MM NOT_NAMED 1928-11-26 22:00:00 NR 16.4000 116.600 main 334 334 __________O___ -1 16.4000 116.600 4 3 318
1928324N10145 1928 66 WP MM NOT_NAMED 1928-11-27 00:00:00 NR 16.4596 116.543 main 346 346 __________P___ -1 16.4596 116.543 4 2 316
1928324N10145 1928 66 WP MM NOT_NAMED 1928-11-27 03:00:00 NR 16.4986 116.502 main 346 346 __________P___ -1 16.4986 116.502 4 1 319
1928324N10145 1928 66 WP MM NOT_NAMED 1928-11-27 06:00:00 NR 16.5021 116.495 main 346 346 __________P___ -1 16.5021 116.495 4 0 0
1928324N10145 1928 66 WP MM NOT_NAMED 1928-11-27 09:00:00 NR 16.4981 116.500 main 346 346 __________P___ -1 16.4981 116.500 4 0 0
1928324N10145 1928 66 WP MM NOT_NAMED 1928-11-27 10:00:00 NR 16.5000 116.500 main 346 346 __________O___ -1 16.5000 116.500 4 1 318
1928324N10145 1928 66 WP MM NOT_NAMED 1928-11-27 12:00:00 NR 16.5276 116.481 main 346 346 __________P___ -1 16.5276 116.481 4 1 328
1928324N10145 1928 66 WP MM NOT_NAMED 1928-11-27 15:00:00 NR 16.5754 116.452 main 348 348 __________P___ -1 16.5754 116.452 4 1 334
1928324N10145 1928 66 WP MM NOT_NAMED 1928-11-27 18:00:00 NR 16.6279 116.425 main 358 358 __________P___ -1 16.6279 116.425 4 1 343
1928324N10145 1928 66 WP MM NOT_NAMED 1928-11-27 21:00:00 NR 16.6821 116.405 main 360 360 __________P___ -1 16.6821 116.405 4 1 0
1928324N10145 1928 66 WP MM NOT_NAMED 1928-11-27 22:00:00 NR 16.7000 116.400 main 360 360 __________O___ -1 16.7000 116.400 4 1 330
1928324N10145 1928 66 WP MM NOT_NAMED 1928-11-28 00:00:00 NR 16.7307 116.392 main 360 360 __________P___ -1 16.7307 116.392 4 1 346
1928324N10145 1928 66 WP MM NOT_NAMED 1928-11-28 03:00:00 NR 16.7767 116.385 main 363 363 __________P___ -1 16.7767 116.385 4 1 348
1928324N10145 1928 66 WP MM NOT_NAMED 1928-11-28 06:00:00 NR 16.8254 116.387 main 363 363 __________P___ -1 16.8254 116.387 4 1 9
1928324N10145 1928 66 WP MM NOT_NAMED 1928-11-28 09:00:00 NR 16.8800 116.395 main 366 366 __________P___ -1 16.8800 116.395 4 1 20
1928324N10145 1928 66 WP MM NOT_NAMED 1928-11-28 10:00:00 NR 16.9000 116.400 main 366 366 __________O___ -1 16.9000 116.400 4 2 295
1928324N10145 1928 66 WP MM NOT_NAMED 1928-11-28 12:00:00 NR 16.9269 116.286 main 376 376 __________P___ -1 16.9269 116.286 4 3 285
1928324N10145 1928 66 WP MM NOT_NAMED 1928-11-28 15:00:00 NR 16.9732 116.119 main 399 399 __________P___ -1 16.9732 116.119 4 2 301
1928324N10145 1928 66 WP MM NOT_NAMED 1928-11-28 18:00:00 NR 17.0421 116.085 main 399 382 __________P___ -1 17.0421 116.085 4 3 48
1928324N10145 1928 66 WP MM NOT_NAMED 1928-11-28 21:00:00 NR 17.1516 116.331 main 386 365 __________P___ -1 17.1516 116.331 4 6 68
1928324N10145 1928 66 WP MM NOT_NAMED 1928-11-28 22:00:00 NR 17.2000 116.500 main 365 308 __________O___ -1 17.2000 116.500 4 15 75
1928324N10145 1928 66 WP MM NOT_NAMED 1928-11-29 00:00:00 NR 17.3353 117.067 main 308 222 __________P___ -1 17.3353 117.067 4 20 77
1928324N10145 1928 66 WP MM NOT_NAMED 1928-11-29 03:00:00 NR 17.5749 118.222 main 222 77 __________P___ -1 17.5749 118.222 4 24 79
1928324N10145 1928 66 WP MM NOT_NAMED 1928-11-29 06:00:00 NR 17.8221 119.582 main 77 0 __________P___ -1 17.8221 119.582 4 27 80
1928324N10145 1928 66 WP MM NOT_NAMED 1928-11-29 09:00:00 NR 18.0398 120.966 main 0 0 __________P___ -1 18.0398 120.966 4 26 81
1928324N10145 1928 66 WP MM NOT_NAMED 1928-11-29 10:00:00 NR 18.1000 121.400 main 0 0 __________O___ -1 18.1000 121.400 2 24 82
1928324N10145 1928 66 WP MM NOT_NAMED 1928-11-29 12:00:00 NR 18.1979 122.200 main 0 10 __________P___ -1 18.1979 122.200 2 21 84
1928324N10145 1928 66 WP MM NOT_NAMED 1928-11-29 15:00:00 NR 18.2975 123.252 main 105 105 __________P___ -1 18.2975 123.252 2 19 85
1928324N10145 1928 66 WP MM NOT_NAMED 1928-11-29 18:00:00 NR 18.3563 124.174 main 200 200 __________P___ -1 18.3563 124.174 2 17 87
1928324N10145 1928 66 WP MM NOT_NAMED 1928-11-29 21:00:00 NR 18.3911 125.024 main 284 295 __________P___ -1 18.3911 125.024 2 16 88
1928324N10145 1928 66 WP MM NOT_NAMED 1928-11-29 22:00:00 NR 18.4000 125.300 main 316 __________O___ -1 18.4000 125.300 2 16 88

Digital Typhoon Data and Search

About IBTrACS Database

This database is a web-friendly format of International Best Track Archive for Climate Stewardship (IBTrACS), a global best track data archive curated by NOAA dating back to 1842.

Updated: 2021-11-26